Terminal Aerodrome Forecast
Issued by NWS

Home | Current Version | Previous Version | Text Only | Print | Product List | Glossary On
Versions: 1 2 3 4 5 6 7 8 9 10 11 12 13 14 15
731
FTUS45 KTFX 231121
TAFCTB
TAF
KCTB 231121Z 2312/2412 02008KT 3SM -SN BR SCT004 BKN030
      TEMPO 2312/2316 1SM -SN BR OVC010
     FM231600 36007KT 5SM -SN BR SCT005 OVC035
      TEMPO 2316/2320 3SM -SN BR OVC020
     FM240000 36007KT P6SM VCSH SCT005 BKN035=

USA.gov is the U.S. government's official web portal to all federal, state and local government web resources and services.